Hickory, North Carolina
Current Conditions -  °F | °C
As of 4:53 AM on Monday 22 Dec 2014 (Local Time) from KHKY Reporting Station
Light Rain Light Rain  
Wind Chill: 34°   Ceiling: 2700
Heat Index: 40°   Visibility: 6mi
Dew Point: 35°   Wind: 9mph
Humidity: 83%   Direction: 50°NE
Pressure: 30.11"   Gusts: NA
Location:  35.74°N, 81.33°W
Report Text: KHKY 220953Z AUTO 05008KT 6SM -RA BR OVC027 04/02 A3011 RMK AO2 RAE13B48 SLP188 P0000 T00440017
Loading
Personal Weather Stations






























Interactive Weather Map New forecast layout! Learn more

10-Day Weather Forecast

Advertisements
Track Severe Weather on mobile